Thunder radar more information blitzortung!


Radar de pluja more information rain snow radar


Visita la nostra xarxa de llocs de meteo:

Template documentation
and downloads

And another site



No particular awareness of the weather is required.    There are no Weather-warnings

Pagina Historial Weather Underground text

Diari Resum Octubre 21, 2017 Unitats:  Imperial    Mètric   Tant
« Previous Dia
SegĂźent Dia »
Diari Setmana Mensual Anual Personalitzada
  Maxima: Minima: Media:
Temperatura: 77.5 °F 55.6 °F 68.2 °F
Punt de rosada: 60.4 °F 46.4 °F 57.6 °F
Humitat: 93 % 53 % 70 %
Wind Speed: 9.2 mph 0 mph 2.7 mph
RĂ fegues de vent: 9.2 mph - -
Vent:- - South
Pression baro: 30.2 in 30.1 in -
Precipitacions: 0 in    
Historical Graphs
 
 
Dades de taula per Octubre 21, 2017
Temps Temperatura Punt de rosada Pression baro Vent Wind Speed RĂ fegues de vent Humitat Rainfall Rate (Hourly)
00:03 61 °F 56.5 °F 30.2 in NNW 2.3 mph 2.3 mph 85 % 0 in
03:50 55.6 °F 53.6 °F 30.1 in Calm     93 % 0 in
04:00 55.9 °F 54 °F 30.1 in Calm     93 % 0 in
04:10 56.1 °F 53.8 °F 30.1 in NNE 2 mph 3 mph 92 % 0 in
04:20 57 °F 54.7 °F 30.1 in Calm   3 mph 92 % 0 in
04:30 57.7 °F 55 °F 30.2 in ENE 1 mph 2 mph 91 % 0 in
04:40 58.3 °F 55.4 °F 30.2 in East 2 mph 4 mph 90 % 0 in
04:50 58.6 °F 55 °F 30.2 in ESE 2 mph 3 mph 88 % 0 in
05:00 59.9 °F 55.9 °F 30.2 in East 1 mph 2 mph 87 % 0 in
10:10 60.8 °F 56.3 °F 30.2 in SW 2.3 mph 2.3 mph 85 % 0 in
10:11 61 °F 56.5 °F 30.2 in SW 1.2 mph   85 % 0 in
10:13 61.5 °F 57 °F 30.2 in Calm     85 % 0 in
10:18 61.5 °F 56.7 °F 30.2 in SW 2.3 mph 2.3 mph 84 % 0 in
10:23 61.7 °F 56.8 °F 30.2 in SSW 2.3 mph   84 % 0 in
10:28 63.1 °F 57.6 °F 30.2 in ESE 2.3 mph 2.3 mph 82 % 0 in
10:33 63.7 °F 57.7 °F 30.2 in NNE 2.4 mph 2.4 mph 81 % 0 in
10:38 63.7 °F 57.7 °F 30.2 in ENE 2.3 mph 2.3 mph 81 % 0 in
10:43 63.3 °F 57 °F 30.2 in ESE 2.3 mph 2.6 mph 80 % 0 in
10:48 63.9 °F 57.6 °F 30.2 in ESE 2.3 mph 2.3 mph 80 % 0 in
10:53 65.1 °F 58.5 °F 30.2 in South 2.3 mph 2.3 mph 79 % 0 in
10:58 65.3 °F 58.6 °F 30.2 in ENE 2.3 mph 2.3 mph 79 % 0 in
11:03 66 °F 59 °F 30.2 in SSE 2.3 mph 2.3 mph 78 % 0 in
11:08 66.7 °F 59.4 °F 30.2 in SE 1.2 mph   77 % 0 in
11:13 66.9 °F 59.2 °F 30.2 in ESE 2.4 mph 2.4 mph 76 % 0 in
11:18 66.7 °F 59.4 °F 30.2 in NE 1.4 mph 1.4 mph 77 % 0 in
11:23 67.3 °F 59.7 °F 30.2 in ENE 2.3 mph 2.3 mph 77 % 0 in
11:28 67.3 °F 59.7 °F 30.2 in NNE 1.2 mph 1.2 mph 77 % 0 in
11:33 67.5 °F 59.5 °F 30.2 in ENE 2.3 mph 2.3 mph 76 % 0 in
11:38 68 °F 59.7 °F 30.2 in ENE 2.3 mph 2.3 mph 75 % 0 in
11:43 67.8 °F 58.8 °F 30.2 in East 3.5 mph 3.5 mph 73 % 0 in
11:48 68.2 °F 59.2 °F 30.2 in East 2.9 mph 2.9 mph 73 % 0 in
11:53 68.4 °F 59.7 °F 30.2 in ESE 3.5 mph 3.5 mph 74 % 0 in
11:58 68.5 °F 59.5 °F 30.2 in NNE 3.5 mph 3.5 mph 73 % 0 in
12:03 68.4 °F 59.4 °F 30.2 in NE 2.3 mph 2.3 mph 73 % 0 in
12:08 68.7 °F 59.4 °F 30.2 in ENE 2.3 mph 2.3 mph 72 % 0 in
12:13 69.3 °F 59.7 °F 30.2 in NE 3.5 mph 3.5 mph 72 % 0 in
12:18 68.9 °F 59.2 °F 30.2 in ENE 2.3 mph 2.3 mph 71 % 0 in
12:23 69.6 °F 59.7 °F 30.2 in ESE 4.6 mph 4.6 mph 71 % 0 in
12:28 69.6 °F 58.6 °F 30.2 in ESE 5.8 mph 5.8 mph 68 % 0 in
12:30 75.2 °F 58.5 °F 30.1 in SW 2 mph 3 mph 56 % 0 in
12:33 69.3 °F 59.2 °F 30.2 in NNE 3.6 mph 3.6 mph 70 % 0 in
12:38 70 °F 59.7 °F 30.2 in ENE 4.6 mph 4.6 mph 70 % 0 in
12:40 75.2 °F 58.5 °F 30.1 in SW 3 mph 6 mph 56 % 0 in
12:43 70.3 °F 59.7 °F 30.2 in East 2.3 mph 2.3 mph 69 % 0 in
12:48 70.7 °F 60.1 °F 30.2 in ENE 4.9 mph 4.9 mph 69 % 0 in
12:53 70.7 °F 59.5 °F 30.2 in NNE 3.6 mph 3.6 mph 68 % 0 in
12:58 71.1 °F 60.1 °F 30.2 in ESE 3.3 mph 3.3 mph 68 % 0 in
13:03 71.2 °F 59.4 °F 30.2 in ESE 3.5 mph 3.5 mph 66 % 0 in
13:08 72 °F 59.2 °F 30.2 in SSE 2.3 mph   64 % 0 in
13:13 72 °F 59.5 °F 30.2 in East 4.6 mph 4.6 mph 65 % 0 in
13:18 72 °F 59.2 °F 30.2 in ENE 3.5 mph 3.5 mph 64 % 0 in
13:23 72.3 °F 59.5 °F 30.2 in ENE 4 mph 4 mph 64 % 0 in
13:28 72.3 °F 59.9 °F 30.1 in NW 3.5 mph 3.5 mph 65 % 0 in
13:33 73.2 °F 60.3 °F 30.1 in NNW 1.6 mph   64 % 0 in
13:38 73.4 °F 58.6 °F 30.1 in NW 4.6 mph 4.6 mph 60 % 0 in
13:43 73.4 °F 58.3 °F 30.1 in SE 3.5 mph 3.5 mph 59 % 0 in
13:48 73.8 °F 59 °F 30.1 in ESE 2.9 mph 2.9 mph 60 % 0 in
13:53 73.6 °F 58.8 °F 30.1 in ESE 3.5 mph 3.5 mph 60 % 0 in
13:58 74.1 °F 58.8 °F 30.1 in SSW 2.3 mph 2.6 mph 59 % 0 in
14:03 75 °F 59.2 °F 30.1 in SE 4.6 mph 4.6 mph 58 % 0 in
14:08 74.7 °F 59.4 °F 30.1 in ENE 3.5 mph 3.5 mph 59 % 0 in
14:13 74.7 °F 59.4 °F 30.1 in West 1.6 mph 1.6 mph 59 % 0 in
14:18 75 °F 59.7 °F 30.1 in ENE 2.3 mph 2.3 mph 59 % 0 in
14:23 75.4 °F 60.1 °F 30.1 in SE 4.6 mph 4.6 mph 59 % 0 in
14:28 75.7 °F 59.9 °F 30.1 in WSW 5.8 mph 5.8 mph 58 % 0 in
14:33 75.7 °F 58.5 °F 30.1 in South 3.5 mph 3.5 mph 55 % 0 in
14:38 75.7 °F 58.5 °F 30.1 in South 3.5 mph 3.5 mph 55 % 0 in
14:43 75.9 °F 59.5 °F 30.1 in WNW 3.1 mph 3.1 mph 57 % 0 in
14:48 76.3 °F 60.4 °F 30.1 in SSW 5.8 mph 5.8 mph 58 % 0 in
14:53 76.5 °F 59.5 °F 30.1 in SSW 3.5 mph 3.5 mph 56 % 0 in
14:58 75.9 °F 59.5 °F 30.1 in SW 3.5 mph 3.5 mph 57 % 0 in
15:03 76.5 °F 59.2 °F 30.1 in SE 3.6 mph 3.6 mph 55 % 0 in
15:08 76.3 °F 58.8 °F 30.1 in South 3.5 mph 3.5 mph 55 % 0 in
15:13 76.8 °F 59.9 °F 30.1 in WSW 4.6 mph 4.6 mph 56 % 0 in
15:18 77 °F 58.6 °F 30.1 in SSE 2.9 mph 2.9 mph 53 % 0 in
15:23 77.4 °F 59.9 °F 30.1 in WSW 5.8 mph 5.8 mph 55 % 0 in
15:28 77.5 °F 59.5 °F 30.1 in South 4.6 mph 4.6 mph 54 % 0 in
15:33 77.2 °F 58.6 °F 30.1 in ENE 2.4 mph 2.4 mph 53 % 0 in
15:38 76.6 °F 58.6 °F 30.1 in SW 2.3 mph 2.3 mph 54 % 0 in
15:43 76.3 °F 58.5 °F 30.1 in North 2.3 mph 2.3 mph 54 % 0 in
15:48 75.9 °F 58.1 °F 30.1 in SSE 2.3 mph 2.3 mph 54 % 0 in
15:53 75.4 °F 57 °F 30.1 in ESE 2.9 mph 2.9 mph 53 % 0 in
15:58 75.2 °F 56.8 °F 30.1 in ESE 5.8 mph 5.8 mph 53 % 0 in
15:59 75.2 °F 56.8 °F 30.1 in ESE 5.8 mph 5.8 mph 53 % 0 in
16:04 75 °F 57.2 °F 30.1 in NNE 5.4 mph 5.4 mph 54 % 0 in
16:09 74.7 °F 57.4 °F 30.1 in ESE 8.1 mph 8.1 mph 55 % 0 in
16:14 74.8 °F 57.6 °F 30.1 in ESE 9.2 mph 9.2 mph 55 % 0 in
16:19 74.7 °F 57.4 °F 30.1 in ESE 6.9 mph 6.9 mph 55 % 0 in
16:24 75 °F 57.7 °F 30.1 in ENE 5.8 mph 5.8 mph 55 % 0 in
16:29 75 °F 57.7 °F 30.1 in NE 5.6 mph 5.6 mph 55 % 0 in
16:34 75 °F 57.2 °F 30.1 in ESE 4.6 mph 4.6 mph 54 % 0 in
16:39 75 °F 57.7 °F 30.1 in ESE 3.8 mph 3.8 mph 55 % 0 in
16:44 74.8 °F 57.6 °F 30.1 in East 3.5 mph 3.5 mph 55 % 0 in
16:49 75.7 °F 58.5 °F 30.1 in South 3.5 mph 3.5 mph 55 % 0 in
16:54 75.7 °F 58.8 °F 30.1 in SSW 3.1 mph 3.1 mph 56 % 0 in
16:59 75.7 °F 59.4 °F 30.1 in WSW 4.3 mph 4.3 mph 57 % 0 in
17:04 76.1 °F 59.7 °F 30.1 in SW 4.7 mph 4.7 mph 57 % 0 in
17:09 75.6 °F 58.8 °F 30.1 in West 4.6 mph 4.6 mph 56 % 0 in
17:14 75.9 °F 59.2 °F 30.1 in SW 6.9 mph 6.9 mph 56 % 0 in
17:19 75.9 °F 59.2 °F 30.1 in West 5.8 mph 5.8 mph 56 % 0 in
17:41 75 °F 59.2 °F 30.1 in SSW 3.5 mph 4 mph 58 % 0 in
17:46 74.7 °F 58.8 °F 30.1 in South 5.8 mph 5.8 mph 58 % 0 in
17:51 74.1 °F 58.5 °F 30.1 in SW 5.8 mph 5.8 mph 58 % 0 in
17:56 73.6 °F 57.9 °F 30.1 in SW 8.1 mph 8.1 mph 58 % 0 in
18:01 73.2 °F 57.9 °F 30.1 in SW 3.5 mph 3.5 mph 59 % 0 in
18:06 73 °F 57.9 °F 30.1 in WSW 5.9 mph 5.9 mph 59 % 0 in
18:11 72.5 °F 57.4 °F 30.1 in SW 3.5 mph 3.8 mph 59 % 0 in
18:16 72.1 °F 57.6 °F 30.1 in SW 4.6 mph 4.6 mph 60 % 0 in
18:21 71.8 °F 57 °F 30.1 in WSW 4.6 mph 4.6 mph 60 % 0 in
18:26 71.4 °F 57.7 °F 30.1 in SW 4.6 mph 4.6 mph 62 % 0 in
18:31 71.2 °F 57.6 °F 30.1 in SW 5.8 mph 5.8 mph 62 % 0 in
18:36 70.9 °F 57.7 °F 30.1 in WSW 4.6 mph 4.6 mph 63 % 0 in
18:41 70.5 °F 57.7 °F 30.1 in SSW 3.6 mph 3.6 mph 64 % 0 in
18:46 70.2 °F 57.4 °F 30.1 in WSW 5.8 mph 5.8 mph 64 % 0 in
18:51 70 °F 57.7 °F 30.1 in WSW 3.5 mph 3.5 mph 65 % 0 in
18:56 69.6 °F 57.7 °F 30.1 in SW 4.3 mph 4.3 mph 66 % 0 in
19:01 69.4 °F 57.6 °F 30.1 in WSW 3.5 mph 3.5 mph 66 % 0 in
19:06 69.3 °F 57.7 °F 30.1 in South 5.8 mph 5.8 mph 67 % 0 in
19:11 69.1 °F 57.7 °F 30.1 in SW 4.6 mph 4.6 mph 67 % 0 in
19:16 68.7 °F 57.7 °F 30.1 in West 4.6 mph 4.6 mph 68 % 0 in
19:21 68.5 °F 57.6 °F 30.1 in WSW 3.5 mph 3.5 mph 68 % 0 in
19:26 68.4 °F 57.4 °F 30.1 in WSW 4.6 mph 4.6 mph 68 % 0 in
19:30 64 °F 58.8 °F 30.2 in West 1 mph 2 mph 83 % 0 in
19:31 68.4 °F 57.7 °F 30.1 in WSW 5.8 mph 5.8 mph 69 % 0 in
19:36 68 °F 57.4 °F 30.1 in SW 2.4 mph 2.4 mph 69 % 0 in
19:40 64.2 °F 58.8 °F 30.2 in Calm   1 mph 83 % 0 in
19:41 67.8 °F 58.1 °F 30.1 in SW 2.9 mph 2.9 mph 71 % 0 in
19:46 67.6 °F 57.9 °F 30.1 in WSW 2.3 mph 2.3 mph 71 % 0 in
19:50 64.2 °F 58.8 °F 30.2 in WSW 1 mph 2 mph 83 % 0 in
19:51 67.5 °F 58.1 °F 30.1 in West 2.3 mph 2.3 mph 72 % 0 in
19:56 67.3 °F 57.9 °F 30.1 in SW 2.3 mph 2.3 mph 72 % 0 in
20:00 64.4 °F 58.8 °F 30.2 in Calm   2 mph 82 % 0 in
20:01 67.3 °F 57.9 °F 30.1 in SW 2.3 mph 2.3 mph 72 % 0 in
20:03 67.3 °F 58.3 °F 30.1 in SW 1.2 mph 1.2 mph 73 % 0 in
20:08 67.1 °F 58.3 °F 30.1 in West 1.4 mph 1.4 mph 73 % 0 in
20:10 64.2 °F 58.6 °F 30.2 in West 1 mph 2 mph 82 % 0 in
20:18 66.9 °F 57.9 °F 30.1 in Calm     73 % 0 in
20:20 64.2 °F 57.9 °F 30.2 in NW 1 mph 3 mph 80 % 0 in
20:23 66.7 °F 57.7 °F 30.1 in West 1.2 mph   73 % 0 in
20:28 66.7 °F 58.3 °F 30.1 in NW 1.2 mph   74 % 0 in
20:30 64 °F 57 °F 30.2 in West 2 mph 6 mph 78 % 0 in
20:33 66.6 °F 57.9 °F 30.1 in Calm     74 % 0 in
20:38 66.6 °F 57.9 °F 30.1 in NW 1.2 mph   74 % 0 in
20:43 66.6 °F 57.9 °F 30.2 in West 2.3 mph 2.3 mph 74 % 0 in
20:45 64.4 °F 56.3 °F 30.2 in West 2 mph 4 mph 75 % 0 in
20:48 66.4 °F 57.7 °F 30.2 in West 2.3 mph 2.3 mph 74 % 0 in
20:53 66.2 °F 57.7 °F 30.2 in WNW 1.2 mph 1.2 mph 74 % 0 in
20:55 64.2 °F 55.4 °F 30.2 in West 1 mph 2 mph 73 % 0 in
20:58 66.2 °F 57.7 °F 30.2 in Calm     74 % 0 in
21:03 66 °F 58.3 °F 30.2 in Calm     76 % 0 in
21:05 64 °F 54.9 °F 30.2 in WNW 1 mph 3 mph 72 % 0 in
21:08 65.8 °F 58.1 °F 30.2 in West 1.2 mph 1.2 mph 76 % 0 in
21:13 65.8 °F 58.1 °F 30.2 in WSW 3.1 mph 3.1 mph 76 % 0 in
21:15 63.9 °F 54.3 °F 30.2 in WNW 1 mph 2 mph 71 % 0 in
21:18 66 °F 58.3 °F 30.2 in West 2.4 mph 2.4 mph 76 % 0 in
21:23 66 °F 58.3 °F 30.2 in West 3.5 mph 3.5 mph 76 % 0 in
21:25 63.3 °F 53.8 °F 30.2 in WNW 2 mph 2 mph 71 % 0 in
21:28 66 °F 58.3 °F 30.2 in West 3.1 mph 3.1 mph 76 % 0 in
21:33 65.8 °F 58.5 °F 30.2 in WSW 2.3 mph 2.3 mph 77 % 0 in
21:35 63.3 °F 53.4 °F 30.2 in West 1 mph 4 mph 70 % 0 in
21:38 65.7 °F 58.3 °F 30.2 in ESE 1.2 mph   77 % 0 in
21:43 65.3 °F 58.3 °F 30.2 in ESE 3.5 mph 3.5 mph 78 % 0 in
21:45 63 °F 53.1 °F 30.2 in West 2 mph 3 mph 70 % 0 in
21:48 65.3 °F 57.9 °F 30.2 in West 2.2 mph 2.2 mph 77 % 0 in
21:53 65.3 °F 58.3 °F 30.2 in West 1.2 mph   78 % 0 in
21:58 65.1 °F 58.1 °F 30.2 in Calm     78 % 0 in
22:03 64.9 °F 57.9 °F 30.2 in Calm     78 % 0 in
22:05 62.8 °F 51.3 °F 30.2 in Calm   6 mph 66 % 0 in
22:08 64.8 °F 57.7 °F 30.2 in NE 1.6 mph 1.6 mph 78 % 0 in
22:13 64.6 °F 57.9 °F 30.2 in ESE 3.8 mph 3.8 mph 79 % 0 in
22:15 62.6 °F 51.1 °F 30.2 in Calm   1 mph 66 % 0 in
22:18 64.6 °F 57.9 °F 30.2 in East 2.3 mph 2.3 mph 79 % 0 in
22:23 64.6 °F 57.9 °F 30.2 in East 1.2 mph 1.2 mph 79 % 0 in
22:25 62.4 °F 50.9 °F 30.2 in WSW 2 mph 3 mph 66 % 0 in
22:28 64.4 °F 57.7 °F 30.2 in East 2.3 mph 2.3 mph 79 % 0 in
22:33 64.2 °F 57.6 °F 30.2 in Calm     79 % 0 in
22:35 62.2 °F 49.8 °F 30.2 in WSW 1 mph 4 mph 64 % 0 in
22:38 64 °F 57.4 °F 30.2 in Calm     79 % 0 in
22:43 64 °F 57.7 °F 30.2 in Calm     80 % 0 in
22:45 62.1 °F 49.3 °F 30.2 in West 1 mph 2 mph 63 % 0 in
22:48 64 °F 57.7 °F 30.2 in East 1.2 mph 1.2 mph 80 % 0 in
22:53 64 °F 57.7 °F 30.2 in SSW 1.4 mph 1.4 mph 80 % 0 in
22:55 61.7 °F 48.9 °F 30.2 in West 2 mph 4 mph 63 % 0 in
22:58 63.9 °F 57.9 °F 30.2 in Calm     81 % 0 in
23:03 64 °F 58.1 °F 30.2 in Calm     81 % 0 in
23:05 61.3 °F 48.6 °F 30.2 in WSW 2 mph 2 mph 63 % 0 in
23:08 64 °F 58.1 °F 30.2 in Calm     81 % 0 in
23:13 64 °F 58.1 °F 30.2 in ENE 1.2 mph 1.2 mph 81 % 0 in
23:15 61 °F 48.4 °F 30.2 in Calm   2 mph 63 % 0 in
23:18 64 °F 58.5 °F 30.2 in Calm     82 % 0 in
23:23 63.9 °F 57.9 °F 30.2 in Calm     81 % 0 in
23:25 60.8 °F 48 °F 30.2 in Calm   2 mph 63 % 0 in
23:28 63.9 °F 58.3 °F 30.2 in Calm     82 % 0 in
23:33 63.9 °F 58.3 °F 30.2 in ENE 1.2 mph   82 % 0 in
23:35 60.4 °F 47.8 °F 30.2 in WSW 3 mph 3 mph 63 % 0 in
23:38 63.9 °F 58.3 °F 30.2 in Calm     82 % 0 in
23:43 63.7 °F 58.1 °F 30.2 in Calm     82 % 0 in
23:45 60.1 °F 46.6 °F 30.2 in West 2 mph 4 mph 61 % 0 in
23:48 63.7 °F 58.1 °F 30.2 in Calm     82 % 0 in
23:53 63.7 °F 58.1 °F 30.2 in Calm     82 % 0 in
23:55 59.9 °F 46.4 °F 30.2 in West 1 mph 3 mph 61 % 0 in
23:58 63.9 °F 58.3 °F 30.2 in ENE 1.6 mph 1.6 mph 82 % 0 in
Meteo Sesrovires
Elogis d' Weather Underground - 3.5 mb

Guio original per  Jim McMurry - jmcmurry@mwt.net Adaptat per a la plantilla per  Wim van der Kuil - Leuven-Template.eu

Trobareu la nostra informacio del temps tambe a:

Weather Underground

AWEKAS